Time;durP1;ratioP1;P1;durP2;ratioP2;P2;SDS_P1;SDS_P2;PMS_P1;PMS_P2;Temp;Humidity;BMP_temperature;BMP_pressure;BME280_temperature;BME280_humidity;BME280_pressure;Samples;Min_cycle;Max_cycle;Signal;HPM_P1;HPM_P2
2023/03/09 00:00:53;;;;;;;4.20;2.25;;;2.40;99.90;;;;;;5058777;28;20498;-74
2023/03/09 00:03:18;;;;;;;5.50;2.08;;;2.50;99.90;;;;;;5009537;28;20044;-74
2023/03/09 00:05:52;;;;;;;4.35;1.88;;;2.40;99.90;;;;;;5025258;28;20502;-74
2023/03/09 00:08:18;;;;;;;6.45;2.47;;;2.40;99.90;;;;;;5024224;28;20059;-74
2023/03/09 00:10:43;;;;;;;5.47;2.45;;;2.40;99.90;;;;;;5025275;28;20030;-74
2023/03/09 00:13:09;;;;;;;5.53;2.22;;;2.40;99.90;;;;;;5024305;28;20060;-74
2023/03/09 00:15:35;;;;;;;7.70;2.70;;;2.40;99.90;;;;;;5009450;28;20120;-74
2023/03/09 00:18:01;;;;;;;8.98;2.53;;;2.40;99.90;;;;;;5057959;28;20033;-74
2023/03/09 00:20:27;;;;;;;6.60;3.05;;;2.40;99.90;;;;;;5007364;28;20091;-74
2023/03/09 00:22:54;;;;;;;6.70;2.03;;;2.40;99.90;;;;;;5024563;28;20115;-74
2023/03/09 00:25:23;;;;;;;6.13;2.83;;;2.30;99.90;;;;;;5024647;28;20037;-74
2023/03/09 00:27:50;;;;;;;7.47;2.75;;;2.30;99.90;;;;;;5008101;28;20029;-74
2023/03/09 00:30:17;;;;;;;10.80;2.85;;;2.20;99.90;;;;;;5023997;28;20493;-74
2023/03/09 00:32:43;;;;;;;5.25;2.45;;;2.20;99.90;;;;;;5008210;28;20045;-74
2023/03/09 00:35:08;;;;;;;6.30;2.60;;;2.20;99.90;;;;;;5015503;28;20083;-74
2023/03/09 00:37:39;;;;;;;6.35;2.67;;;2.20;99.90;;;;;;5002686;28;20049;-74
2023/03/09 00:40:07;;;;;;;3.95;1.90;;;2.20;99.90;;;;;;5054607;28;20632;-74
2023/03/09 00:42:33;;;;;;;5.93;2.65;;;2.10;99.90;;;;;;5017030;28;20494;-74
2023/03/09 00:45:00;;;;;;;5.68;2.40;;;2.10;99.90;;;;;;5073803;28;20034;-74
2023/03/09 00:47:26;;;;;;;4.95;2.58;;;2.10;99.90;;;;;;5058080;28;20030;-74
2023/03/09 00:49:52;;;;;;;7.78;3.17;;;2.10;99.90;;;;;;5024130;28;21778;-74
2023/03/09 00:52:18;;;;;;;5.43;2.85;;;2.10;99.90;;;;;;5025028;28;20029;-74
2023/03/09 00:54:43;;;;;;;7.43;3.28;;;2.10;99.90;;;;;;5022914;28;20045;-74
2023/03/09 00:57:09;;;;;;;3.25;2.10;;;2.10;99.90;;;;;;5057818;28;20053;-74
2023/03/09 00:59:34;;;;;;;8.02;3.80;;;2.00;99.90;;;;;;5024192;28;20033;-74
2023/03/09 01:02:00;;;;;;;5.47;2.28;;;2.10;99.90;;;;;;5041957;28;20050;-74
2023/03/09 01:04:26;;;;;;;5.22;2.20;;;2.10;99.90;;;;;;5023790;28;20041;-74
2023/03/09 01:06:55;;;;;;;6.65;2.67;;;2.00;99.90;;;;;;5059009;28;20029;-74
2023/03/09 01:09:21;;;;;;;9.32;3.83;;;2.10;99.90;;;;;;5022988;28;20073;-74
2023/03/09 01:11:46;;;;;;;6.10;2.55;;;2.10;99.90;;;;;;5024981;28;20068;-74
2023/03/09 01:14:12;;;;;;;5.20;2.65;;;2.10;99.90;;;;;;5024972;28;20041;-74
2023/03/09 01:16:38;;;;;;;6.55;2.60;;;2.10;99.90;;;;;;5057138;28;20038;-74
2023/03/09 01:19:03;;;;;;;6.40;2.78;;;2.10;99.90;;;;;;5021485;28;20037;-74
2023/03/09 01:21:29;;;;;;;5.97;2.45;;;2.00;99.90;;;;;;5023914;28;20399;-74
2023/03/09 01:23:55;;;;;;;6.20;2.85;;;2.00;99.90;;;;;;5057678;28;20041;-74
2023/03/09 01:26:20;;;;;;;5.70;2.53;;;2.10;99.90;;;;;;5040016;28;20045;-74
2023/03/09 01:28:47;;;;;;;6.82;2.58;;;2.00;99.90;;;;;;5022436;28;20044;-74
2023/03/09 01:31:15;;;;;;;8.02;2.50;;;2.00;99.90;;;;;;5056487;28;20100;-74
2023/03/09 01:33:41;;;;;;;7.07;2.58;;;2.00;99.90;;;;;;5024676;28;20449;-74
2023/03/09 01:36:11;;;;;;;5.60;2.85;;;2.00;99.90;;;;;;5020197;28;20505;-74
2023/03/09 01:38:37;;;;;;;4.93;2.13;;;2.00;99.90;;;;;;5007105;28;20495;-74
2023/03/09 01:41:03;;;;;;;6.20;2.85;;;2.00;99.90;;;;;;5024268;28;20128;-74
2023/03/09 01:43:36;;;;;;;7.72;3.28;;;2.00;99.90;;;;;;5057541;28;20037;-74
2023/03/09 01:46:20;;;;;;;6.18;3.03;;;2.00;99.90;;;;;;5053738;28;20060;-74
2023/03/09 01:49:06;;;;;;;5.55;2.83;;;2.00;99.90;;;;;;5023548;28;20049;-74
2023/03/09 01:51:39;;;;;;;9.68;2.60;;;2.00;99.90;;;;;;5021409;28;20552;-74
2023/03/09 01:54:08;;;;;;;5.80;2.40;;;2.00;99.90;;;;;;5040047;28;20110;-74
2023/03/09 01:56:36;;;;;;;7.68;2.88;;;2.00;99.90;;;;;;5024296;28;20037;-74
2023/03/09 01:59:03;;;;;;;6.65;2.63;;;2.00;99.90;;;;;;5023073;28;20041;-74
2023/03/09 02:01:29;;;;;;;9.25;3.00;;;2.00;99.90;;;;;;5024482;28;20046;-74
2023/03/09 02:04:02;;;;;;;5.97;2.83;;;1.90;99.90;;;;;;5023818;28;20609;-74
2023/03/09 02:06:29;;;;;;;5.78;3.20;;;2.00;99.90;;;;;;5022461;28;20075;-74
2023/03/09 02:09:12;;;;;;;5.40;2.30;;;1.90;99.90;;;;;;5037095;28;20499;-74
2023/03/09 02:11:39;;;;;;;3.83;1.85;;;1.90;99.90;;;;;;5056170;28;20045;-74
2023/03/09 02:14:05;;;;;;;7.10;2.60;;;1.90;99.90;;;;;;5057709;28;20072;-74
2023/03/09 02:16:31;;;;;;;4.00;2.17;;;1.90;99.90;;;;;;5055646;28;20040;-74
2023/03/09 02:18:57;;;;;;;3.80;1.88;;;1.90;99.90;;;;;;5054748;28;20037;-74
2023/03/09 02:21:28;;;;;;;4.13;2.60;;;1.90;99.90;;;;;;5056215;28;20056;-74
2023/03/09 02:24:05;;;;;;;5.70;2.58;;;1.90;99.90;;;;;;5055173;28;20045;-74
2023/03/09 02:26:43;;;;;;;6.75;2.65;;;1.90;99.90;;;;;;5023410;28;20048;-73
2023/03/09 02:29:10;;;;;;;6.95;2.47;;;1.90;99.90;;;;;;5005825;28;20057;-74
2023/03/09 02:31:35;;;;;;;6.10;2.60;;;1.90;99.90;;;;;;5024793;28;20033;-74
2023/03/09 02:34:01;;;;;;;5.38;2.20;;;1.80;99.90;;;;;;5022503;28;20059;-74
2023/03/09 02:36:27;;;;;;;7.80;2.83;;;1.90;99.90;;;;;;5006525;28;20143;-74
2023/03/09 02:38:52;;;;;;;3.75;2.20;;;1.80;99.90;;;;;;5039506;28;20045;-74
2023/03/09 02:41:20;;;;;;;4.75;2.30;;;1.80;99.90;;;;;;5041056;28;20116;-74
2023/03/09 02:43:57;;;;;;;6.88;2.30;;;1.80;99.90;;;;;;5054345;28;20046;-74
2023/03/09 02:46:23;;;;;;;4.28;2.10;;;1.90;99.90;;;;;;5023183;28;20029;-74
2023/03/09 02:48:49;;;;;;;5.63;2.35;;;1.80;99.90;;;;;;5005974;28;20095;-74
2023/03/09 02:51:14;;;;;;;5.70;2.40;;;1.80;99.90;;;;;;5052337;28;20122;-74
2023/03/09 02:53:40;;;;;;;5.88;1.80;;;1.80;99.90;;;;;;5037217;28;20037;-74
2023/03/09 02:56:06;;;;;;;3.97;1.92;;;1.90;99.90;;;;;;5056709;28;20044;-74
2023/03/09 02:58:32;;;;;;;4.60;1.92;;;1.80;99.90;;;;;;5042847;28;20095;-74
2023/03/09 03:00:58;;;;;;;4.22;2.33;;;1.80;99.90;;;;;;5024765;28;20046;-74
2023/03/09 03:03:24;;;;;;;5.10;2.47;;;1.80;99.90;;;;;;5010347;28;20044;-74
2023/03/09 03:05:49;;;;;;;7.10;2.60;;;1.80;99.90;;;;;;5058094;28;20139;-74
2023/03/09 03:08:15;;;;;;;4.25;2.28;;;1.80;99.90;;;;;;5060350;28;20040;-74
2023/03/09 03:10:41;;;;;;;7.70;2.95;;;1.80;99.90;;;;;;5009186;28;20060;-74
2023/03/09 03:13:07;;;;;;;4.40;2.10;;;1.80;99.90;;;;;;5043532;28;20041;-74
2023/03/09 03:15:33;;;;;;;5.75;2.25;;;1.80;99.90;;;;;;5026143;28;20041;-74
2023/03/09 03:17:58;;;;;;;4.97;2.20;;;1.80;99.90;;;;;;5026226;28;20491;-74
2023/03/09 03:20:25;;;;;;;4.70;1.67;;;1.80;99.90;;;;;;5056316;28;20037;-74
2023/03/09 03:22:51;;;;;;;6.68;2.55;;;1.80;99.90;;;;;;5019376;28;20041;-74
2023/03/09 03:25:17;;;;;;;6.78;1.95;;;1.80;99.90;;;;;;5017297;28;20545;-74
2023/03/09 03:27:43;;;;;;;4.63;2.10;;;1.80;99.90;;;;;;5023106;28;20025;-74
2023/03/09 03:30:10;;;;;;;5.60;1.92;;;1.70;99.90;;;;;;5053007;28;20048;-74
2023/03/09 03:32:36;;;;;;;7.72;3.05;;;1.70;99.90;;;;;;5055833;28;20430;-74
2023/03/09 03:35:01;;;;;;;5.50;2.25;;;1.80;99.90;;;;;;5020734;28;20050;-74
2023/03/09 03:37:27;;;;;;;4.82;2.60;;;1.70;99.90;;;;;;5017295;28;20035;-74
2023/03/09 03:39:53;;;;;;;3.40;1.80;;;1.70;99.90;;;;;;5054311;28;20120;-74
2023/03/09 03:42:19;;;;;;;3.78;2.42;;;1.70;99.90;;;;;;5022514;28;20044;-74
2023/03/09 03:44:44;;;;;;;6.13;2.58;;;1.70;99.90;;;;;;5054459;28;20487;-74
2023/03/09 03:47:10;;;;;;;3.92;2.20;;;1.70;99.90;;;;;;5039195;28;20671;-74
2023/03/09 03:49:35;;;;;;;6.72;3.10;;;1.70;99.90;;;;;;5018908;28;20779;-74
2023/03/09 03:52:01;;;;;;;3.17;1.83;;;1.70;99.90;;;;;;5004142;28;20035;-74
2023/03/09 03:54:27;;;;;;;7.40;2.63;;;1.70;99.90;;;;;;5006185;28;20073;-74
2023/03/09 03:56:52;;;;;;;6.22;2.67;;;1.70;99.90;;;;;;5020708;28;20393;-74
2023/03/09 03:59:18;;;;;;;5.28;2.40;;;1.70;99.90;;;;;;5054811;28;20056;-74
2023/03/09 04:01:44;;;;;;;5.47;2.63;;;1.70;99.90;;;;;;5051790;28;20033;-74
2023/03/09 04:04:09;;;;;;;8.52;3.65;;;1.70;99.90;;;;;;5005755;28;20041;-74
2023/03/09 04:06:35;;;;;;;7.93;3.50;;;1.60;99.90;;;;;;5018428;28;20441;-74
2023/03/09 04:09:01;;;;;;;7.43;2.92;;;1.60;99.90;;;;;;5055025;28;20582;-74
2023/03/09 04:11:27;;;;;;;6.75;2.70;;;1.60;99.90;;;;;;5005567;28;20536;-74
2023/03/09 04:13:52;;;;;;;5.50;2.58;;;1.60;99.90;;;;;;5003489;28;20037;-74
2023/03/09 04:16:18;;;;;;;6.43;2.90;;;1.60;99.90;;;;;;5017907;28;20064;-74
2023/03/09 04:18:44;;;;;;;5.90;2.85;;;1.60;99.90;;;;;;5053229;28;20041;-74
2023/03/09 04:21:09;;;;;;;5.13;3.25;;;1.60;99.90;;;;;;5037226;28;20034;-74
2023/03/09 04:23:35;;;;;;;8.68;2.80;;;1.60;99.90;;;;;;5003802;28;20104;-74
2023/03/09 04:26:03;;;;;;;6.70;3.25;;;1.60;99.90;;;;;;5019814;28;20076;-74
2023/03/09 04:28:29;;;;;;;7.75;3.15;;;1.60;99.90;;;;;;5034684;28;20149;-74
2023/03/09 04:30:55;;;;;;;8.52;4.00;;;1.60;99.90;;;;;;5021270;28;20132;-74
2023/03/09 04:33:21;;;;;;;7.95;2.92;;;1.60;99.90;;;;;;5036135;28;20036;-74
2023/03/09 04:35:47;;;;;;;10.57;3.85;;;1.50;99.90;;;;;;5018917;28;20049;-74
2023/03/09 04:38:13;;;;;;;7.75;2.80;;;1.50;99.90;;;;;;5025426;28;20083;-74
2023/03/09 04:40:39;;;;;;;7.88;4.07;;;1.50;99.90;;;;;;5023835;28;20539;-74
2023/03/09 04:43:05;;;;;;;7.07;3.35;;;1.50;99.90;;;;;;5040444;28;20068;-74
2023/03/09 04:45:31;;;;;;;12.65;4.38;;;1.60;99.90;;;;;;5023787;28;20038;-74
2023/03/09 04:47:56;;;;;;;6.25;3.03;;;1.60;99.90;;;;;;5025184;28;20033;-74
2023/03/09 04:50:22;;;;;;;9.77;3.38;;;1.60;99.90;;;;;;5055739;28;20390;-74
2023/03/09 04:52:49;;;;;;;5.05;2.60;;;1.60;99.90;;;;;;5055415;28;20034;-74
2023/03/09 04:55:15;;;;;;;9.07;3.75;;;1.60;99.90;;;;;;5023826;28;20422;-74
2023/03/09 04:57:41;;;;;;;8.23;3.10;;;1.60;99.90;;;;;;5039752;28;20045;-74
2023/03/09 05:00:10;;;;;;;8.52;3.20;;;1.60;99.90;;;;;;5038772;28;20045;-74
2023/03/09 05:02:40;;;;;;;6.18;3.05;;;1.60;99.90;;;;;;5040426;28;20041;-74
2023/03/09 05:05:07;;;;;;;8.05;3.33;;;1.60;99.90;;;;;;5023532;28;20033;-74
2023/03/09 05:07:32;;;;;;;8.65;3.55;;;1.60;99.90;;;;;;5021904;28;20040;-74
2023/03/09 05:09:58;;;;;;;9.18;4.38;;;1.60;99.90;;;;;;5057743;28;20033;-74
2023/03/09 05:12:30;;;;;;;10.20;3.88;;;1.60;99.90;;;;;;5007498;28;20550;-74
2023/03/09 05:14:57;;;;;;;9.07;3.78;;;1.60;99.90;;;;;;5020477;28;20714;-74
2023/03/09 05:17:23;;;;;;;5.82;3.33;;;1.60;99.90;;;;;;5050464;28;20065;-74
2023/03/09 05:19:49;;;;;;;8.68;3.60;;;1.60;99.90;;;;;;5001924;28;20529;-74
2023/03/09 05:22:15;;;;;;;6.60;2.60;;;1.50;99.90;;;;;;5060203;28;20041;-74
2023/03/09 05:24:41;;;;;;;7.38;3.17;;;1.60;99.90;;;;;;5056860;28;20103;-74
2023/03/09 05:27:07;;;;;;;9.20;3.47;;;1.60;99.90;;;;;;5006048;28;20048;-74
2023/03/09 05:29:32;;;;;;;6.38;3.10;;;1.50;99.90;;;;;;5040435;28;20046;-74
2023/03/09 05:31:58;;;;;;;8.43;4.28;;;1.50;99.90;;;;;;5022532;28;20045;-74
2023/03/09 05:34:23;;;;;;;11.93;4.30;;;1.50;99.90;;;;;;5055600;28;20034;-74
2023/03/09 05:36:49;;;;;;;8.35;3.90;;;1.50;99.90;;;;;;5022275;28;20053;-74
2023/03/09 05:39:15;;;;;;;7.35;3.00;;;1.50;99.90;;;;;;5056188;28;20034;-74
2023/03/09 05:41:41;;;;;;;9.80;3.58;;;1.40;99.90;;;;;;5056322;28;20120;-74
2023/03/09 05:44:06;;;;;;;8.25;2.83;;;1.40;99.90;;;;;;5056202;28;20048;-74
2023/03/09 05:46:32;;;;;;;8.15;3.60;;;1.40;99.90;;;;;;5055884;28;20083;-74
2023/03/09 05:48:58;;;;;;;10.40;3.25;;;1.40;99.90;;;;;;5057457;28;20033;-74
2023/03/09 05:51:23;;;;;;;8.63;3.47;;;1.50;99.90;;;;;;5005649;28;20038;-74
2023/03/09 05:53:49;;;;;;;7.65;4.10;;;1.50;99.90;;;;;;5024800;28;20055;-74
2023/03/09 05:56:14;;;;;;;7.70;3.33;;;1.50;99.90;;;;;;5024315;28;20044;-74
2023/03/09 05:58:40;;;;;;;10.27;4.32;;;1.50;99.90;;;;;;5005865;28;20141;-74
2023/03/09 06:01:19;;;;;;;7.32;3.65;;;1.50;99.90;;;;;;5020764;28;20553;-74
2023/03/09 06:03:44;;;;;;;8.43;3.75;;;1.50;99.90;;;;;;5023562;28;20076;-74
2023/03/09 06:06:10;;;;;;;7.55;3.47;;;1.50;99.90;;;;;;5021594;28;20084;-74
2023/03/09 06:08:36;;;;;;;9.50;3.38;;;1.60;99.90;;;;;;5037344;28;20034;-74
2023/03/09 06:11:01;;;;;;;9.85;4.53;;;1.50;99.90;;;;;;5054882;28;20056;-74
2023/03/09 06:13:28;;;;;;;11.43;4.07;;;1.50;99.90;;;;;;5024374;28;20038;-74
2023/03/09 06:15:53;;;;;;;8.07;3.38;;;1.50;99.90;;;;;;5022896;28;20049;-74
2023/03/09 06:18:20;;;;;;;7.57;3.63;;;1.50;99.90;;;;;;5022770;28;20038;-74
2023/03/09 06:20:46;;;;;;;7.45;2.95;;;1.50;99.90;;;;;;5051453;28;20053;-74
2023/03/09 06:23:12;;;;;;;7.28;3.05;;;1.60;99.90;;;;;;5051797;28;20415;-74
2023/03/09 06:25:38;;;;;;;9.52;3.60;;;1.60;99.90;;;;;;5005073;28;20050;-74
2023/03/09 06:28:04;;;;;;;10.20;3.85;;;1.60;99.90;;;;;;5018042;28;20033;-74
2023/03/09 06:30:30;;;;;;;9.15;3.60;;;1.60;99.90;;;;;;5052262;28;20055;-74
2023/03/09 06:32:56;;;;;;;8.15;2.92;;;1.60;99.90;;;;;;5017420;28;20041;-74
2023/03/09 06:35:23;;;;;;;7.85;3.90;;;1.60;99.90;;;;;;5019834;28;20052;-74
2023/03/09 06:37:48;;;;;;;7.78;3.00;;;1.60;99.90;;;;;;5018377;28;20053;-74
2023/03/09 06:40:14;;;;;;;7.63;3.08;;;1.60;99.90;;;;;;5019879;28;20053;-73
2023/03/09 06:42:40;;;;;;;8.48;3.97;;;1.60;99.90;;;;;;5049657;28;20046;-73
2023/03/09 06:45:07;;;;;;;9.35;4.05;;;1.60;99.90;;;;;;5015983;28;20033;-73
2023/03/09 06:47:33;;;;;;;8.98;2.92;;;1.50;99.90;;;;;;5051449;28;21813;-73
2023/03/09 06:49:58;;;;;;;9.02;4.45;;;1.60;99.90;;;;;;5021842;28;20029;-73
2023/03/09 06:52:25;;;;;;;8.15;3.95;;;1.60;99.90;;;;;;5052115;28;20109;-74
2023/03/09 06:54:54;;;;;;;11.18;3.08;;;1.60;99.90;;;;;;5015905;28;20518;-74
2023/03/09 06:57:19;;;;;;;9.50;4.15;;;1.60;99.90;;;;;;5052087;28;20044;-74
2023/03/09 06:59:45;;;;;;;9.55;3.78;;;1.60;99.90;;;;;;5015984;28;20049;-73
2023/03/09 07:02:12;;;;;;;8.63;4.57;;;1.70;99.90;;;;;;5021481;28;20147;-73
2023/03/09 07:04:38;;;;;;;7.45;2.92;;;1.70;99.90;;;;;;5050767;28;20534;-73
2023/03/09 07:07:03;;;;;;;6.15;3.22;;;1.70;99.90;;;;;;5070313;28;20049;-74
2023/03/09 07:09:31;;;;;;;10.88;3.72;;;1.70;99.90;;;;;;5056230;28;20451;-78
2023/03/09 07:11:57;;;;;;;10.93;3.85;;;1.70;99.90;;;;;;5037515;28;20037;-73
2023/03/09 07:14:24;;;;;;;8.40;2.88;;;1.70;99.90;;;;;;5055765;28;20095;-73
2023/03/09 07:16:54;;;;;;;11.82;4.30;;;1.80;99.90;;;;;;5052816;28;20499;-73
2023/03/09 07:19:20;;;;;;;9.20;3.90;;;1.80;99.90;;;;;;5020358;28;20541;-73
2023/03/09 07:21:46;;;;;;;13.25;3.35;;;1.80;99.90;;;;;;5019344;28;20152;-73
2023/03/09 07:24:11;;;;;;;6.95;3.95;;;1.80;99.90;;;;;;5017244;28;20042;-73
2023/03/09 07:26:37;;;;;;;12.25;4.13;;;1.80;99.90;;;;;;5051219;28;20037;-74
2023/03/09 07:29:03;;;;;;;9.48;4.20;;;1.90;99.90;;;;;;5054222;28;20045;-73
2023/03/09 07:31:29;;;;;;;7.95;3.67;;;1.90;99.90;;;;;;5002171;28;20501;-73
2023/03/09 07:33:55;;;;;;;9.40;4.28;;;1.90;99.90;;;;;;5019591;28;20054;-73
2023/03/09 07:36:21;;;;;;;10.63;4.70;;;1.90;99.90;;;;;;5017480;28;20041;-73
2023/03/09 07:38:50;;;;;;;10.18;4.47;;;1.90;99.90;;;;;;5017677;28;20037;-73
2023/03/09 07:41:17;;;;;;;9.23;4.03;;;1.90;99.90;;;;;;5042316;28;20048;-73
2023/03/09 07:43:43;;;;;;;8.55;3.97;;;1.80;99.90;;;;;;5010368;28;20128;-73
2023/03/09 07:46:17;;;;;;;8.45;3.95;;;1.80;99.90;;;;;;5058242;28;20037;-73
2023/03/09 07:48:43;;;;;;;10.70;3.42;;;1.90;99.90;;;;;;5005016;28;20057;-73
2023/03/09 07:51:10;;;;;;;8.98;2.80;;;1.90;99.90;;;;;;5054658;28;20049;-73
2023/03/09 07:53:37;;;;;;;7.95;3.30;;;2.00;99.90;;;;;;5058066;28;20128;-73
2023/03/09 07:56:04;;;;;;;8.90;3.33;;;2.00;99.90;;;;;;5052278;28;20057;-73
2023/03/09 07:58:31;;;;;;;10.40;3.85;;;2.00;99.90;;;;;;5023905;28;20040;-73
2023/03/09 08:00:56;;;;;;;9.05;3.88;;;2.00;99.90;;;;;;5057040;28;20041;-73
2023/03/09 08:03:23;;;;;;;11.13;4.32;;;2.10;99.90;;;;;;5023198;28;20034;-73
2023/03/09 08:05:49;;;;;;;8.02;3.63;;;2.10;99.90;;;;;;5056792;28;20083;-73
2023/03/09 08:08:16;;;;;;;10.65;3.97;;;2.10;99.90;;;;;;5020288;28;20124;-73
2023/03/09 08:10:47;;;;;;;9.15;4.25;;;2.10;99.90;;;;;;5035726;28;20047;-73
2023/03/09 08:13:13;;;;;;;11.30;4.53;;;2.20;99.90;;;;;;5057599;28;20042;-73
2023/03/09 08:15:39;;;;;;;12.02;4.30;;;2.20;99.90;;;;;;5007511;28;20096;-73
2023/03/09 08:18:05;;;;;;;12.48;4.80;;;2.20;99.90;;;;;;5021799;28;20407;-74
2023/03/09 08:20:31;;;;;;;11.75;4.30;;;2.20;99.90;;;;;;5021591;28;20072;-73
2023/03/09 08:22:57;;;;;;;13.07;4.43;;;2.30;99.90;;;;;;5008773;28;20068;-73
2023/03/09 08:25:22;;;;;;;10.07;4.90;;;2.30;99.90;;;;;;5019608;28;20583;-73
2023/03/09 08:27:48;;;;;;;11.45;4.60;;;2.30;99.90;;;;;;5040096;28;20045;-73
2023/03/09 08:30:16;;;;;;;9.88;4.18;;;2.30;99.90;;;;;;5051675;28;20058;-73
2023/03/09 08:32:42;;;;;;;9.23;4.45;;;2.30;99.90;;;;;;5019134;28;20041;-73
2023/03/09 08:35:08;;;;;;;9.43;4.22;;;2.40;99.90;;;;;;5053721;28;20049;-73
2023/03/09 08:37:35;;;;;;;13.13;5.03;;;2.30;99.90;;;;;;5053218;28;20049;-73
2023/03/09 08:40:00;;;;;;;11.80;4.50;;;2.30;99.90;;;;;;5006251;28;20120;-73
2023/03/09 08:42:26;;;;;;;9.73;3.92;;;2.40;99.90;;;;;;5004787;28;20155;-73
2023/03/09 08:44:52;;;;;;;13.05;4.65;;;2.40;99.90;;;;;;5019824;28;20135;-73
2023/03/09 08:47:18;;;;;;;9.98;4.22;;;2.40;99.90;;;;;;5038104;28;20083;-73
2023/03/09 08:49:46;;;;;;;11.65;4.57;;;2.40;99.90;;;;;;5004183;28;20045;-73
2023/03/09 08:52:12;;;;;;;12.20;4.65;;;2.40;99.90;;;;;;5054980;28;20033;-73
2023/03/09 08:54:38;;;;;;;12.52;4.38;;;2.40;99.90;;;;;;5023448;28;20053;-73
2023/03/09 08:57:04;;;;;;;8.73;3.92;;;2.40;99.90;;;;;;5037633;28;20045;-73
2023/03/09 08:59:31;;;;;;;9.32;4.07;;;2.40;99.90;;;;;;5022956;28;20502;-73
2023/03/09 09:01:57;;;;;;;9.07;4.10;;;2.40;99.90;;;;;;5054036;28;20048;-73
2023/03/09 09:04:23;;;;;;;9.52;4.25;;;2.40;99.90;;;;;;5052764;28;20100;-73
2023/03/09 09:06:49;;;;;;;11.95;4.55;;;2.50;99.90;;;;;;5054574;28;20034;-73
2023/03/09 09:09:15;;;;;;;11.20;4.32;;;2.50;99.90;;;;;;5016137;28;20579;-73
2023/03/09 09:11:40;;;;;;;12.15;3.78;;;2.50;99.90;;;;;;5052448;28;20499;-73
2023/03/09 09:14:06;;;;;;;10.35;3.90;;;2.50;99.90;;;;;;5024748;28;20037;-73
2023/03/09 09:16:32;;;;;;;8.93;3.47;;;2.50;99.90;;;;;;5018341;28;20115;-73
2023/03/09 09:18:57;;;;;;;12.68;4.47;;;2.50;99.90;;;;;;5019983;28;20124;-73
2023/03/09 09:21:23;;;;;;;13.25;3.88;;;2.50;99.90;;;;;;5017237;28;20041;-73
2023/03/09 09:23:49;;;;;;;9.02;4.03;;;2.50;99.90;;;;;;5018824;28;20510;-73
2023/03/09 09:26:15;;;;;;;12.35;4.72;;;2.60;99.90;;;;;;5016387;28;20100;-73
2023/03/09 09:28:41;;;;;;;10.43;4.60;;;2.60;99.90;;;;;;5019071;28;20080;-73
2023/03/09 09:31:09;;;;;;;9.85;4.57;;;2.70;99.90;;;;;;5002965;28;20091;-73
2023/03/09 09:33:35;;;;;;;10.98;3.67;;;2.70;99.90;;;;;;5016125;28;20096;-73
2023/03/09 09:36:04;;;;;;;7.63;3.33;;;2.80;99.90;;;;;;5014988;28;20030;-73
2023/03/09 09:38:30;;;;;;;7.13;3.15;;;2.80;99.90;;;;;;5047408;28;20033;-73
2023/03/09 09:40:59;;;;;;;11.98;4.18;;;2.70;99.90;;;;;;5050698;28;20131;-73
2023/03/09 09:43:26;;;;;;;10.20;4.22;;;2.70;99.90;;;;;;5053128;28;20040;-76
2023/03/09 09:45:55;;;;;;;7.80;3.55;;;2.70;99.90;;;;;;5012497;28;20403;-74
2023/03/09 09:48:22;;;;;;;10.07;4.00;;;2.70;99.90;;;;;;5019991;28;20047;-73
2023/03/09 09:51:09;;;;;;;8.68;3.28;;;2.70;99.90;;;;;;5048662;28;20095;-73
2023/03/09 09:54:07;;;;;;;8.15;3.30;;;2.80;99.90;;;;;;5042732;28;20516;-73
2023/03/09 09:56:49;;;;;;;9.90;4.00;;;2.80;99.90;;;;;;5026997;28;20048;-73
2023/03/09 09:59:42;;;;;;;12.25;3.88;;;2.80;99.90;;;;;;5028148;28;20475;-73
2023/03/09 10:02:07;;;;;;;8.65;3.33;;;2.90;99.90;;;;;;5025048;28;20130;-74
2023/03/09 10:04:45;;;;;;;8.52;3.35;;;2.90;99.90;;;;;;5043337;28;20561;-74
2023/03/09 10:07:20;;;;;;;7.93;3.50;;;2.90;99.90;;;;;;5061266;28;20038;-73
2023/03/09 10:09:58;;;;;;;6.30;3.28;;;2.90;99.90;;;;;;5031756;28;20077;-73
2023/03/09 10:12:24;;;;;;;8.77;4.40;;;3.00;99.90;;;;;;5064343;28;20045;-74
2023/03/09 10:15:00;;;;;;;7.97;3.40;;;3.00;99.90;;;;;;5015473;28;20064;-74
2023/03/09 10:17:39;;;;;;;7.05;3.03;;;3.10;99.90;;;;;;5030984;28;20056;-74
2023/03/09 10:20:33;;;;;;;7.68;3.80;;;3.10;99.90;;;;;;5013098;28;20041;-74
2023/03/09 10:22:59;;;;;;;10.05;3.78;;;3.10;99.90;;;;;;5063304;28;20054;-74
2023/03/09 10:25:27;;;;;;;10.10;3.45;;;3.10;99.90;;;;;;5045565;28;20394;-73
2023/03/09 10:28:02;;;;;;;8.52;3.60;;;3.10;99.90;;;;;;5029380;28;20125;-74
2023/03/09 10:30:58;;;;;;;7.07;3.00;;;3.10;99.90;;;;;;5014312;28;20064;-74
2023/03/09 10:33:50;;;;;;;14.50;3.95;;;3.10;99.90;;;;;;5030866;28;20038;-74
2023/03/09 10:36:29;;;;;;;11.65;4.45;;;3.20;99.90;;;;;;5010738;28;20073;-74
2023/03/09 10:38:56;;;;;;;8.80;3.45;;;3.20;99.90;;;;;;5011914;28;20049;-74
2023/03/09 10:41:22;;;;;;;8.30;3.85;;;3.20;99.90;;;;;;5028350;28;20049;-74
2023/03/09 10:43:48;;;;;;;8.50;3.33;;;3.20;99.90;;;;;;5026983;28;20577;-74
2023/03/09 10:46:14;;;;;;;9.98;4.13;;;3.20;99.90;;;;;;5080381;28;20037;-74
2023/03/09 10:48:40;;;;;;;10.07;2.92;;;3.20;99.90;;;;;;5064924;28;20048;-74
2023/03/09 10:51:28;;;;;;;8.27;4.03;;;3.30;99.90;;;;;;5022148;28;20049;-74
2023/03/09 10:53:56;;;;;;;10.40;3.45;;;3.30;99.90;;;;;;5061777;28;20088;-74
2023/03/09 10:56:30;;;;;;;7.63;3.60;;;3.30;99.90;;;;;;5064430;28;20064;-73
2023/03/09 10:59:08;;;;;;;8.82;3.60;;;3.40;99.90;;;;;;5031037;28;20553;-74
2023/03/09 11:01:45;;;;;;;8.40;3.45;;;3.30;99.90;;;;;;5047888;28;20052;-74
2023/03/09 11:04:32;;;;;;;9.18;3.33;;;3.30;99.90;;;;;;5030065;28;20041;-74
2023/03/09 11:07:17;;;;;;;9.73;3.38;;;3.30;99.90;;;;;;5055407;28;20096;-74
2023/03/09 11:09:42;;;;;;;11.95;4.15;;;3.30;99.90;;;;;;5051356;28;20136;-74
2023/03/09 11:12:27;;;;;;;8.18;4.10;;;3.30;99.90;;;;;;5024548;28;20224;-74
2023/03/09 11:14:54;;;;;;;11.02;3.90;;;3.30;99.90;;;;;;5033845;28;20045;-74
2023/03/09 11:17:40;;;;;;;9.85;3.47;;;3.40;99.90;;;;;;5037239;28;20049;-74
2023/03/09 11:20:14;;;;;;;10.00;3.60;;;3.40;99.90;;;;;;5053106;28;20041;-74
2023/03/09 11:22:44;;;;;;;8.35;3.65;;;3.40;99.90;;;;;;5040466;28;20098;-73
2023/03/09 11:25:20;;;;;;;8.50;4.15;;;3.40;99.90;;;;;;5041051;28;20087;-74
2023/03/09 11:27:51;;;;;;;;;;;3.40;99.90;;;;;;5037489;28;20057;-74
2023/03/09 11:30:19;;;;;;;10.43;3.08;;;3.50;99.90;;;;;;5054970;28;20153;-74
2023/03/09 11:32:46;;;;;;;7.18;3.42;;;3.50;99.90;;;;;;5023372;28;20191;-74
2023/03/09 11:35:15;;;;;;;9.68;3.40;;;3.50;99.90;;;;;;5007503;28;20046;-74
2023/03/09 11:37:50;;;;;;;10.07;3.47;;;3.50;99.90;;;;;;5026568;28;20034;-74
2023/03/09 11:40:22;;;;;;;7.75;3.28;;;3.50;99.90;;;;;;5037771;28;20040;-74
2023/03/09 11:43:09;;;;;;;10.88;3.55;;;3.50;99.90;;;;;;5009328;28;20037;-74
2023/03/09 11:45:37;;;;;;;8.75;3.90;;;3.50;99.90;;;;;;5057070;28;20065;-74
2023/03/09 11:48:21;;;;;;;8.57;3.92;;;3.50;99.90;;;;;;5055788;28;20041;-73
2023/03/09 11:51:00;;;;;;;10.82;3.90;;;3.50;99.90;;;;;;5051577;28;20510;-73
2023/03/09 11:53:30;;;;;;;8.27;3.30;;;3.50;99.90;;;;;;5054098;28;20494;-74
2023/03/09 11:56:24;;;;;;;8.57;3.88;;;3.60;99.90;;;;;;5050948;28;20065;-74
2023/03/09 11:59:10;;;;;;;7.88;3.25;;;3.60;99.90;;;;;;5053562;28;20042;-74
2023/03/09 12:02:00;;;;;;;8.48;3.35;;;3.60;99.90;;;;;;5054037;28;20459;-74
2023/03/09 12:04:26;;;;;;;9.13;3.35;;;3.70;99.90;;;;;;5036266;28;20049;-74
2023/03/09 12:07:28;;;;;;;7.80;3.38;;;3.60;99.90;;;;;;5024960;28;20395;-74
2023/03/09 12:10:06;;;;;;;7.65;3.22;;;3.70;99.90;;;;;;5056042;28;20033;-73
2023/03/09 12:12:39;;;;;;;8.32;4.18;;;3.70;99.90;;;;;;5041270;28;20039;-73
2023/03/09 12:15:20;;;;;;;9.45;3.60;;;3.70;99.90;;;;;;5058049;28;20056;-74
2023/03/09 12:18:01;;;;;;;8.70;3.50;;;3.70;99.90;;;;;;5022163;28;20127;-74
2023/03/09 12:20:41;;;;;;;8.82;3.85;;;3.70;99.90;;;;;;5003088;28;20037;-74
2023/03/09 12:23:35;;;;;;;8.05;4.10;;;3.70;99.90;;;;;;5053598;28;20046;-74
2023/03/09 12:26:17;;;;;;;8.02;3.45;;;3.70;99.90;;;;;;5053179;28;20045;-74
2023/03/09 12:28:44;;;;;;;10.60;3.53;;;3.70;99.90;;;;;;5055153;28;20144;-74
2023/03/09 12:31:34;;;;;;;11.77;4.25;;;3.80;99.90;;;;;;5022204;28;20537;-74
2023/03/09 12:33:59;;;;;;;8.13;3.42;;;3.80;99.90;;;;;;5054655;28;20564;-73
2023/03/09 12:36:34;;;;;;;7.22;2.95;;;3.80;99.90;;;;;;5021252;28;20042;-74
2023/03/09 12:39:22;;;;;;;8.13;3.35;;;3.80;99.90;;;;;;5055646;28;20049;-74
2023/03/09 12:41:59;;;;;;;10.05;4.00;;;3.80;99.90;;;;;;5054721;28;20482;-73
2023/03/09 12:44:43;;;;;;;8.43;3.20;;;3.80;99.90;;;;;;5055021;28;20396;-74
2023/03/09 12:47:35;;;;;;;9.13;3.90;;;3.80;99.90;;;;;;5035428;28;20043;-74
2023/03/09 12:50:05;;;;;;;8.35;3.55;;;3.80;99.90;;;;;;5050316;28;20124;-74
2023/03/09 12:52:46;;;;;;;8.15;3.13;;;3.80;99.90;;;;;;5056065;28;20033;-74
2023/03/09 12:55:21;;;;;;;9.30;3.90;;;3.80;99.90;;;;;;5052899;28;20475;-73
2023/03/09 12:57:49;;;;;;;10.68;4.22;;;3.80;99.90;;;;;;5019455;28;20494;-74
2023/03/09 13:00:23;;;;;;;9.15;3.35;;;3.80;99.90;;;;;;5021836;28;20041;-74
2023/03/09 13:02:52;;;;;;;11.00;4.55;;;3.80;99.90;;;;;;5033769;28;20053;-74
2023/03/09 13:05:58;;;;;;;8.98;4.65;;;3.80;99.90;;;;;;5055022;28;20060;-74